sensor_id;sensor_type;location;lat;lon;timestamp;temperature;humidity
25248;DHT22;13191;47.472;11.214;2023-02-04T00:00:04;2.90;99.90
25248;DHT22;13191;47.472;11.214;2023-02-04T00:02:32;3.00;99.90
25248;DHT22;13191;47.472;11.214;2023-02-04T00:04:57;3.00;99.90
25248;DHT22;13191;47.472;11.214;2023-02-04T00:07:23;3.00;99.90
25248;DHT22;13191;47.472;11.214;2023-02-04T00:09:49;3.10;99.90
25248;DHT22;13191;47.472;11.214;2023-02-04T00:12:14;3.10;99.90
25248;DHT22;13191;47.472;11.214;2023-02-04T00:14:40;3.10;99.90
25248;DHT22;13191;47.472;11.214;2023-02-04T00:17:05;3.10;99.90
25248;DHT22;13191;47.472;11.214;2023-02-04T00:19:40;3.10;99.90
25248;DHT22;13191;47.472;11.214;2023-02-04T00:22:06;3.20;99.90
25248;DHT22;13191;47.472;11.214;2023-02-04T00:24:32;3.20;99.90
25248;DHT22;13191;47.472;11.214;2023-02-04T00:26:58;3.20;99.90
25248;DHT22;13191;47.472;11.214;2023-02-04T00:29:23;3.30;99.90
25248;DHT22;13191;47.472;11.214;2023-02-04T00:31:49;3.30;99.90
25248;DHT22;13191;47.472;11.214;2023-02-04T00:34:14;3.30;99.90
25248;DHT22;13191;47.472;11.214;2023-02-04T00:36:40;3.30;99.90
25248;DHT22;13191;47.472;11.214;2023-02-04T00:39:05;3.30;99.90
25248;DHT22;13191;47.472;11.214;2023-02-04T00:41:30;3.30;99.90
25248;DHT22;13191;47.472;11.214;2023-02-04T00:43:56;3.40;99.90
25248;DHT22;13191;47.472;11.214;2023-02-04T00:46:21;3.40;99.90
25248;DHT22;13191;47.472;11.214;2023-02-04T00:48:47;3.40;99.90
25248;DHT22;13191;47.472;11.214;2023-02-04T00:51:12;3.40;99.90
25248;DHT22;13191;47.472;11.214;2023-02-04T00:53:38;3.50;99.90
25248;DHT22;13191;47.472;11.214;2023-02-04T00:56:03;3.50;99.90
25248;DHT22;13191;47.472;11.214;2023-02-04T00:58:29;3.40;99.90
25248;DHT22;13191;47.472;11.214;2023-02-04T01:00:54;3.40;99.90
25248;DHT22;13191;47.472;11.214;2023-02-04T01:03:20;3.40;99.90
25248;DHT22;13191;47.472;11.214;2023-02-04T01:05:45;3.40;99.90
25248;DHT22;13191;47.472;11.214;2023-02-04T01:08:11;3.50;99.90
25248;DHT22;13191;47.472;11.214;2023-02-04T01:10:36;3.50;99.90
25248;DHT22;13191;47.472;11.214;2023-02-04T01:13:02;3.50;99.90
25248;DHT22;13191;47.472;11.214;2023-02-04T01:15:27;3.50;99.90
25248;DHT22;13191;47.472;11.214;2023-02-04T01:17:52;3.40;99.90
25248;DHT22;13191;47.472;11.214;2023-02-04T01:20:18;3.40;99.90
25248;DHT22;13191;47.472;11.214;2023-02-04T01:22:44;3.40;99.90
25248;DHT22;13191;47.472;11.214;2023-02-04T01:25:09;3.40;99.90
25248;DHT22;13191;47.472;11.214;2023-02-04T01:27:34;3.40;99.90
25248;DHT22;13191;47.472;11.214;2023-02-04T01:30:00;3.40;99.90
25248;DHT22;13191;47.472;11.214;2023-02-04T01:32:25;3.30;99.90
25248;DHT22;13191;47.472;11.214;2023-02-04T01:34:51;3.20;99.90
25248;DHT22;13191;47.472;11.214;2023-02-04T01:37:16;3.20;99.90
25248;DHT22;13191;47.472;11.214;2023-02-04T01:39:42;3.20;99.90
25248;DHT22;13191;47.472;11.214;2023-02-04T01:42:07;3.20;99.90
25248;DHT22;13191;47.472;11.214;2023-02-04T01:44:33;3.20;99.90
25248;DHT22;13191;47.472;11.214;2023-02-04T01:46:58;3.20;99.90
25248;DHT22;13191;47.472;11.214;2023-02-04T01:49:24;3.20;99.90
25248;DHT22;13191;47.472;11.214;2023-02-04T01:51:50;3.20;99.90
25248;DHT22;13191;47.472;11.214;2023-02-04T01:54:15;3.20;99.90
25248;DHT22;13191;47.472;11.214;2023-02-04T01:56:43;3.10;99.90
25248;DHT22;13191;47.472;11.214;2023-02-04T01:59:10;3.10;99.90
25248;DHT22;13191;47.472;11.214;2023-02-04T02:01:40;2.90;99.90
25248;DHT22;13191;47.472;11.214;2023-02-04T02:04:07;2.90;99.90
25248;DHT22;13191;47.472;11.214;2023-02-04T02:06:33;2.90;99.90
25248;DHT22;13191;47.472;11.214;2023-02-04T02:09:00;3.00;99.90
25248;DHT22;13191;47.472;11.214;2023-02-04T02:11:25;3.00;99.90
25248;DHT22;13191;47.472;11.214;2023-02-04T02:13:52;3.00;99.90
25248;DHT22;13191;47.472;11.214;2023-02-04T02:16:17;3.10;99.90
25248;DHT22;13191;47.472;11.214;2023-02-04T02:18:43;3.10;99.90
25248;DHT22;13191;47.472;11.214;2023-02-04T02:21:09;3.10;99.90
25248;DHT22;13191;47.472;11.214;2023-02-04T02:23:46;3.10;99.90
25248;DHT22;13191;47.472;11.214;2023-02-04T02:26:11;3.10;99.90
25248;DHT22;13191;47.472;11.214;2023-02-04T02:28:37;3.10;99.90
25248;DHT22;13191;47.472;11.214;2023-02-04T02:31:03;3.00;99.90
25248;DHT22;13191;47.472;11.214;2023-02-04T02:33:28;3.10;99.90
25248;DHT22;13191;47.472;11.214;2023-02-04T02:35:53;3.10;99.90
25248;DHT22;13191;47.472;11.214;2023-02-04T02:38:19;3.10;99.90
25248;DHT22;13191;47.472;11.214;2023-02-04T02:40:45;3.10;99.90
25248;DHT22;13191;47.472;11.214;2023-02-04T02:43:12;3.20;99.90
25248;DHT22;13191;47.472;11.214;2023-02-04T02:45:39;3.10;99.90
25248;DHT22;13191;47.472;11.214;2023-02-04T02:48:04;3.10;99.90
25248;DHT22;13191;47.472;11.214;2023-02-04T02:50:31;3.00;99.90
25248;DHT22;13191;47.472;11.214;2023-02-04T02:52:56;2.90;99.90
25248;DHT22;13191;47.472;11.214;2023-02-04T02:55:23;2.90;99.90
25248;DHT22;13191;47.472;11.214;2023-02-04T02:57:49;2.80;99.90
25248;DHT22;13191;47.472;11.214;2023-02-04T03:00:16;2.80;99.90
25248;DHT22;13191;47.472;11.214;2023-02-04T03:02:42;2.80;99.90
25248;DHT22;13191;47.472;11.214;2023-02-04T03:05:07;2.80;99.90
25248;DHT22;13191;47.472;11.214;2023-02-04T03:07:33;2.90;99.90
25248;DHT22;13191;47.472;11.214;2023-02-04T03:09:58;3.00;99.90
25248;DHT22;13191;47.472;11.214;2023-02-04T03:12:24;3.00;99.90
25248;DHT22;13191;47.472;11.214;2023-02-04T03:14:50;3.10;99.90
25248;DHT22;13191;47.472;11.214;2023-02-04T03:17:15;3.10;99.90
25248;DHT22;13191;47.472;11.214;2023-02-04T03:19:41;3.10;99.90
25248;DHT22;13191;47.472;11.214;2023-02-04T03:22:06;3.20;99.90
25248;DHT22;13191;47.472;11.214;2023-02-04T03:24:32;3.20;99.90
25248;DHT22;13191;47.472;11.214;2023-02-04T03:26:57;3.20;99.90
25248;DHT22;13191;47.472;11.214;2023-02-04T03:29:23;3.20;99.90
25248;DHT22;13191;47.472;11.214;2023-02-04T03:31:48;3.20;99.90
25248;DHT22;13191;47.472;11.214;2023-02-04T03:34:14;3.00;99.90
25248;DHT22;13191;47.472;11.214;2023-02-04T03:36:39;3.00;99.90
25248;DHT22;13191;47.472;11.214;2023-02-04T03:39:05;3.00;99.90
25248;DHT22;13191;47.472;11.214;2023-02-04T03:41:30;3.10;99.90
25248;DHT22;13191;47.472;11.214;2023-02-04T03:43:56;3.00;99.90
25248;DHT22;13191;47.472;11.214;2023-02-04T03:46:21;3.10;99.90
25248;DHT22;13191;47.472;11.214;2023-02-04T03:48:51;3.10;99.90
25248;DHT22;13191;47.472;11.214;2023-02-04T03:51:17;3.20;99.90
25248;DHT22;13191;47.472;11.214;2023-02-04T03:53:42;3.10;99.90
25248;DHT22;13191;47.472;11.214;2023-02-04T03:56:07;3.10;99.90
25248;DHT22;13191;47.472;11.214;2023-02-04T03:58:34;3.10;99.90
25248;DHT22;13191;47.472;11.214;2023-02-04T04:01:00;3.10;99.90
25248;DHT22;13191;47.472;11.214;2023-02-04T04:03:25;3.10;99.90
25248;DHT22;13191;47.472;11.214;2023-02-04T04:05:51;3.10;99.90
25248;DHT22;13191;47.472;11.214;2023-02-04T04:08:16;3.00;99.90
25248;DHT22;13191;47.472;11.214;2023-02-04T04:10:42;3.00;99.90
25248;DHT22;13191;47.472;11.214;2023-02-04T04:13:07;3.00;99.90
25248;DHT22;13191;47.472;11.214;2023-02-04T04:15:32;3.00;99.90
25248;DHT22;13191;47.472;11.214;2023-02-04T04:17:58;3.10;99.90
25248;DHT22;13191;47.472;11.214;2023-02-04T04:20:23;3.00;99.90
25248;DHT22;13191;47.472;11.214;2023-02-04T04:22:50;3.10;99.90
25248;DHT22;13191;47.472;11.214;2023-02-04T04:25:15;3.00;99.90
25248;DHT22;13191;47.472;11.214;2023-02-04T04:27:41;3.00;99.90
25248;DHT22;13191;47.472;11.214;2023-02-04T04:30:07;3.00;99.90
25248;DHT22;13191;47.472;11.214;2023-02-04T04:32:32;3.00;99.90
25248;DHT22;13191;47.472;11.214;2023-02-04T04:34:58;2.90;99.90
25248;DHT22;13191;47.472;11.214;2023-02-04T04:37:23;3.00;99.90
25248;DHT22;13191;47.472;11.214;2023-02-04T04:39:49;3.00;99.90
25248;DHT22;13191;47.472;11.214;2023-02-04T04:42:14;3.00;99.90
25248;DHT22;13191;47.472;11.214;2023-02-04T04:44:39;3.10;99.90
25248;DHT22;13191;47.472;11.214;2023-02-04T04:47:05;3.10;99.90
25248;DHT22;13191;47.472;11.214;2023-02-04T04:49:30;3.10;99.90
25248;DHT22;13191;47.472;11.214;2023-02-04T04:51:56;3.10;99.90
25248;DHT22;13191;47.472;11.214;2023-02-04T04:54:21;3.00;99.90
25248;DHT22;13191;47.472;11.214;2023-02-04T04:56:47;3.00;99.90
25248;DHT22;13191;47.472;11.214;2023-02-04T04:59:12;3.00;99.90
25248;DHT22;13191;47.472;11.214;2023-02-04T05:01:38;3.00;99.90
25248;DHT22;13191;47.472;11.214;2023-02-04T05:04:03;3.00;99.90
25248;DHT22;13191;47.472;11.214;2023-02-04T05:06:29;2.90;99.90
25248;DHT22;13191;47.472;11.214;2023-02-04T05:08:54;2.90;99.90
25248;DHT22;13191;47.472;11.214;2023-02-04T05:11:20;2.80;99.90
25248;DHT22;13191;47.472;11.214;2023-02-04T05:13:46;2.90;99.90
25248;DHT22;13191;47.472;11.214;2023-02-04T05:16:11;2.80;99.90
25248;DHT22;13191;47.472;11.214;2023-02-04T05:18:37;2.90;99.90
25248;DHT22;13191;47.472;11.214;2023-02-04T05:21:03;2.90;99.90
25248;DHT22;13191;47.472;11.214;2023-02-04T05:23:28;2.90;99.90
25248;DHT22;13191;47.472;11.214;2023-02-04T05:25:54;2.90;99.90
25248;DHT22;13191;47.472;11.214;2023-02-04T05:28:19;2.80;99.90
25248;DHT22;13191;47.472;11.214;2023-02-04T05:30:53;2.80;99.90
25248;DHT22;13191;47.472;11.214;2023-02-04T05:33:18;2.80;99.90
25248;DHT22;13191;47.472;11.214;2023-02-04T05:35:44;2.70;99.90
25248;DHT22;13191;47.472;11.214;2023-02-04T05:38:09;2.70;99.90
25248;DHT22;13191;47.472;11.214;2023-02-04T05:40:35;2.70;99.90
25248;DHT22;13191;47.472;11.214;2023-02-04T05:43:00;2.70;99.90
25248;DHT22;13191;47.472;11.214;2023-02-04T05:45:25;2.70;99.90
25248;DHT22;13191;47.472;11.214;2023-02-04T05:47:51;2.70;99.90
25248;DHT22;13191;47.472;11.214;2023-02-04T05:50:17;2.70;99.90
25248;DHT22;13191;47.472;11.214;2023-02-04T05:52:42;2.70;99.90
25248;DHT22;13191;47.472;11.214;2023-02-04T05:55:09;2.80;99.90
25248;DHT22;13191;47.472;11.214;2023-02-04T05:57:35;2.80;99.90
25248;DHT22;13191;47.472;11.214;2023-02-04T06:00:00;2.90;99.90
25248;DHT22;13191;47.472;11.214;2023-02-04T06:02:26;2.90;99.90
25248;DHT22;13191;47.472;11.214;2023-02-04T06:04:51;2.90;99.90
25248;DHT22;13191;47.472;11.214;2023-02-04T06:07:17;3.00;99.90
25248;DHT22;13191;47.472;11.214;2023-02-04T06:09:42;3.00;99.90
25248;DHT22;13191;47.472;11.214;2023-02-04T06:12:09;3.10;99.90
25248;DHT22;13191;47.472;11.214;2023-02-04T06:14:34;3.10;99.90
25248;DHT22;13191;47.472;11.214;2023-02-04T06:17:00;3.10;99.90
25248;DHT22;13191;47.472;11.214;2023-02-04T06:19:25;3.20;99.90
25248;DHT22;13191;47.472;11.214;2023-02-04T06:21:51;3.10;99.90
25248;DHT22;13191;47.472;11.214;2023-02-04T06:24:16;3.20;99.90
25248;DHT22;13191;47.472;11.214;2023-02-04T06:26:42;3.20;99.90
25248;DHT22;13191;47.472;11.214;2023-02-04T06:29:07;3.30;99.90
25248;DHT22;13191;47.472;11.214;2023-02-04T06:31:33;3.30;99.90
25248;DHT22;13191;47.472;11.214;2023-02-04T06:33:58;3.30;99.90
25248;DHT22;13191;47.472;11.214;2023-02-04T06:36:24;3.40;99.90
25248;DHT22;13191;47.472;11.214;2023-02-04T06:38:49;3.40;99.90
25248;DHT22;13191;47.472;11.214;2023-02-04T06:41:15;3.40;99.90
25248;DHT22;13191;47.472;11.214;2023-02-04T06:43:40;3.40;99.90
25248;DHT22;13191;47.472;11.214;2023-02-04T06:46:06;3.50;99.90
25248;DHT22;13191;47.472;11.214;2023-02-04T06:48:31;3.50;99.90
25248;DHT22;13191;47.472;11.214;2023-02-04T06:50:57;3.50;99.90
25248;DHT22;13191;47.472;11.214;2023-02-04T06:53:22;3.50;99.90
25248;DHT22;13191;47.472;11.214;2023-02-04T06:55:47;3.50;99.90
25248;DHT22;13191;47.472;11.214;2023-02-04T06:58:13;3.50;99.90
25248;DHT22;13191;47.472;11.214;2023-02-04T07:00:38;3.50;99.90
25248;DHT22;13191;47.472;11.214;2023-02-04T07:03:04;3.50;99.90
25248;DHT22;13191;47.472;11.214;2023-02-04T07:05:31;3.50;99.90
25248;DHT22;13191;47.472;11.214;2023-02-04T07:07:57;3.50;99.90
25248;DHT22;13191;47.472;11.214;2023-02-04T07:10:22;3.50;99.90
25248;DHT22;13191;47.472;11.214;2023-02-04T07:12:48;3.50;99.90
25248;DHT22;13191;47.472;11.214;2023-02-04T07:15:13;3.50;99.90
25248;DHT22;13191;47.472;11.214;2023-02-04T07:17:39;3.50;99.90
25248;DHT22;13191;47.472;11.214;2023-02-04T07:20:04;3.50;99.90
25248;DHT22;13191;47.472;11.214;2023-02-04T07:22:30;3.50;99.90
25248;DHT22;13191;47.472;11.214;2023-02-04T07:24:55;3.50;99.90
25248;DHT22;13191;47.472;11.214;2023-02-04T07:27:21;3.60;99.90
25248;DHT22;13191;47.472;11.214;2023-02-04T07:29:46;3.50;99.90
25248;DHT22;13191;47.472;11.214;2023-02-04T07:32:12;3.50;99.90
25248;DHT22;13191;47.472;11.214;2023-02-04T07:34:37;3.50;99.90
25248;DHT22;13191;47.472;11.214;2023-02-04T07:37:03;3.50;99.90
25248;DHT22;13191;47.472;11.214;2023-02-04T07:39:28;3.50;99.90
25248;DHT22;13191;47.472;11.214;2023-02-04T07:41:54;3.60;99.90
25248;DHT22;13191;47.472;11.214;2023-02-04T07:44:19;3.50;99.90
25248;DHT22;13191;47.472;11.214;2023-02-04T07:46:45;3.60;99.90
25248;DHT22;13191;47.472;11.214;2023-02-04T07:49:11;3.60;99.90
25248;DHT22;13191;47.472;11.214;2023-02-04T07:51:36;3.70;99.90
25248;DHT22;13191;47.472;11.214;2023-02-04T07:54:01;3.70;99.90
25248;DHT22;13191;47.472;11.214;2023-02-04T07:56:27;3.70;99.90
25248;DHT22;13191;47.472;11.214;2023-02-04T07:58:52;3.70;99.90
25248;DHT22;13191;47.472;11.214;2023-02-04T08:01:18;3.70;99.90
25248;DHT22;13191;47.472;11.214;2023-02-04T08:03:43;3.70;99.90
25248;DHT22;13191;47.472;11.214;2023-02-04T08:06:09;3.80;99.90
25248;DHT22;13191;47.472;11.214;2023-02-04T08:08:34;3.90;99.90
25248;DHT22;13191;47.472;11.214;2023-02-04T08:11:00;3.80;99.90
25248;DHT22;13191;47.472;11.214;2023-02-04T08:13:25;3.90;99.90
25248;DHT22;13191;47.472;11.214;2023-02-04T08:15:51;4.00;99.90
25248;DHT22;13191;47.472;11.214;2023-02-04T08:18:16;3.90;99.90
25248;DHT22;13191;47.472;11.214;2023-02-04T08:20:42;3.80;99.90
25248;DHT22;13191;47.472;11.214;2023-02-04T08:23:07;3.80;99.90
25248;DHT22;13191;47.472;11.214;2023-02-04T08:25:32;3.80;99.90
25248;DHT22;13191;47.472;11.214;2023-02-04T08:27:58;3.80;99.90
25248;DHT22;13191;47.472;11.214;2023-02-04T08:30:23;3.70;99.90
25248;DHT22;13191;47.472;11.214;2023-02-04T08:32:49;3.70;99.90
25248;DHT22;13191;47.472;11.214;2023-02-04T08:35:15;3.80;99.90
25248;DHT22;13191;47.472;11.214;2023-02-04T08:37:40;3.70;99.90
25248;DHT22;13191;47.472;11.214;2023-02-04T08:40:06;3.80;99.90
25248;DHT22;13191;47.472;11.214;2023-02-04T08:42:31;3.80;99.90
25248;DHT22;13191;47.472;11.214;2023-02-04T08:44:57;3.80;99.90
25248;DHT22;13191;47.472;11.214;2023-02-04T08:47:22;3.80;99.90
25248;DHT22;13191;47.472;11.214;2023-02-04T08:49:48;3.80;99.90
25248;DHT22;13191;47.472;11.214;2023-02-04T08:52:13;3.80;99.90
25248;DHT22;13191;47.472;11.214;2023-02-04T08:54:39;3.70;99.90
25248;DHT22;13191;47.472;11.214;2023-02-04T08:57:04;3.70;99.90
25248;DHT22;13191;47.472;11.214;2023-02-04T08:59:30;3.70;99.90
25248;DHT22;13191;47.472;11.214;2023-02-04T09:01:55;3.70;99.90
25248;DHT22;13191;47.472;11.214;2023-02-04T09:04:21;3.60;99.90
25248;DHT22;13191;47.472;11.214;2023-02-04T09:06:47;3.60;99.90
25248;DHT22;13191;47.472;11.214;2023-02-04T09:09:12;3.50;99.90
25248;DHT22;13191;47.472;11.214;2023-02-04T09:11:38;3.50;99.90
25248;DHT22;13191;47.472;11.214;2023-02-04T09:14:04;3.50;99.90
25248;DHT22;13191;47.472;11.214;2023-02-04T09:16:29;3.50;99.90
25248;DHT22;13191;47.472;11.214;2023-02-04T09:18:55;3.40;99.90
25248;DHT22;13191;47.472;11.214;2023-02-04T09:21:22;3.40;99.90
25248;DHT22;13191;47.472;11.214;2023-02-04T09:23:48;3.30;99.90
25248;DHT22;13191;47.472;11.214;2023-02-04T09:26:13;3.40;99.90
25248;DHT22;13191;47.472;11.214;2023-02-04T09:28:39;3.50;99.90
25248;DHT22;13191;47.472;11.214;2023-02-04T09:31:04;3.60;99.90
25248;DHT22;13191;47.472;11.214;2023-02-04T09:33:33;3.60;99.90
25248;DHT22;13191;47.472;11.214;2023-02-04T09:35:58;3.60;99.90
25248;DHT22;13191;47.472;11.214;2023-02-04T09:38:24;3.60;99.90
25248;DHT22;13191;47.472;11.214;2023-02-04T09:40:54;3.50;99.90
25248;DHT22;13191;47.472;11.214;2023-02-04T09:43:21;3.60;99.90
25248;DHT22;13191;47.472;11.214;2023-02-04T09:45:50;3.50;99.90
25248;DHT22;13191;47.472;11.214;2023-02-04T09:48:15;3.50;99.90
25248;DHT22;13191;47.472;11.214;2023-02-04T09:50:41;3.50;99.90
25248;DHT22;13191;47.472;11.214;2023-02-04T09:53:09;3.60;99.90
25248;DHT22;13191;47.472;11.214;2023-02-04T09:55:37;3.70;99.90
25248;DHT22;13191;47.472;11.214;2023-02-04T09:58:13;3.70;99.90
25248;DHT22;13191;47.472;11.214;2023-02-04T10:00:41;3.70;99.90
25248;DHT22;13191;47.472;11.214;2023-02-04T10:03:10;3.60;99.90
25248;DHT22;13191;47.472;11.214;2023-02-04T10:05:38;3.60;99.90
25248;DHT22;13191;47.472;11.214;2023-02-04T10:08:04;3.60;99.90
25248;DHT22;13191;47.472;11.214;2023-02-04T10:10:29;3.60;99.90
25248;DHT22;13191;47.472;11.214;2023-02-04T10:12:56;3.60;99.90
25248;DHT22;13191;47.472;11.214;2023-02-04T10:15:22;3.50;99.90
25248;DHT22;13191;47.472;11.214;2023-02-04T10:17:49;3.50;99.90
25248;DHT22;13191;47.472;11.214;2023-02-04T10:20:16;3.50;99.90
25248;DHT22;13191;47.472;11.214;2023-02-04T10:22:41;3.50;99.90
25248;DHT22;13191;47.472;11.214;2023-02-04T10:25:10;3.60;99.90
25248;DHT22;13191;47.472;11.214;2023-02-04T10:27:45;3.60;99.90
25248;DHT22;13191;47.472;11.214;2023-02-04T10:30:15;3.60;99.90
25248;DHT22;13191;47.472;11.214;2023-02-04T10:32:42;3.70;99.90
25248;DHT22;13191;47.472;11.214;2023-02-04T10:35:12;3.80;99.90
25248;DHT22;13191;47.472;11.214;2023-02-04T10:37:38;3.80;99.90
25248;DHT22;13191;47.472;11.214;2023-02-04T10:40:03;3.80;99.90
25248;DHT22;13191;47.472;11.214;2023-02-04T10:42:29;3.90;99.90
25248;DHT22;13191;47.472;11.214;2023-02-04T10:44:55;4.00;99.90
25248;DHT22;13191;47.472;11.214;2023-02-04T10:47:22;4.00;99.90
25248;DHT22;13191;47.472;11.214;2023-02-04T10:49:55;4.00;99.90
25248;DHT22;13191;47.472;11.214;2023-02-04T10:52:22;4.00;99.90
25248;DHT22;13191;47.472;11.214;2023-02-04T10:54:48;4.10;99.90
25248;DHT22;13191;47.472;11.214;2023-02-04T10:57:19;4.00;99.90
25248;DHT22;13191;47.472;11.214;2023-02-04T10:59:45;3.90;99.90
25248;DHT22;13191;47.472;11.214;2023-02-04T11:04:43;4.00;99.90
25248;DHT22;13191;47.472;11.214;2023-02-04T11:07:09;4.00;99.90
25248;DHT22;13191;47.472;11.214;2023-02-04T11:09:39;4.10;99.90
25248;DHT22;13191;47.472;11.214;2023-02-04T11:12:05;4.10;99.90
25248;DHT22;13191;47.472;11.214;2023-02-04T11:14:30;4.10;99.90
25248;DHT22;13191;47.472;11.214;2023-02-04T11:16:56;4.10;99.90
25248;DHT22;13191;47.472;11.214;2023-02-04T11:19:33;4.00;99.90
25248;DHT22;13191;47.472;11.214;2023-02-04T11:22:07;4.00;99.90
25248;DHT22;13191;47.472;11.214;2023-02-04T11:24:43;3.90;99.90
25248;DHT22;13191;47.472;11.214;2023-02-04T11:27:24;4.00;99.90
25248;DHT22;13191;47.472;11.214;2023-02-04T11:30:18;4.00;99.90
25248;DHT22;13191;47.472;11.214;2023-02-04T11:32:54;4.00;99.90
25248;DHT22;13191;47.472;11.214;2023-02-04T11:35:21;4.00;99.90
25248;DHT22;13191;47.472;11.214;2023-02-04T11:37:47;4.10;99.90
25248;DHT22;13191;47.472;11.214;2023-02-04T11:40:27;4.10;99.90
25248;DHT22;13191;47.472;11.214;2023-02-04T11:42:56;4.10;99.90
25248;DHT22;13191;47.472;11.214;2023-02-04T11:45:29;4.10;99.90
25248;DHT22;13191;47.472;11.214;2023-02-04T11:47:56;4.10;99.90
25248;DHT22;13191;47.472;11.214;2023-02-04T11:52:49;4.10;99.90
25248;DHT22;13191;47.472;11.214;2023-02-04T11:55:15;4.00;99.90
25248;DHT22;13191;47.472;11.214;2023-02-04T11:57:41;4.00;99.90
25248;DHT22;13191;47.472;11.214;2023-02-04T12:00:20;3.90;99.90
25248;DHT22;13191;47.472;11.214;2023-02-04T12:02:48;4.00;99.90
25248;DHT22;13191;47.472;11.214;2023-02-04T12:05:17;3.90;99.90
25248;DHT22;13191;47.472;11.214;2023-02-04T12:07:43;3.90;99.90
25248;DHT22;13191;47.472;11.214;2023-02-04T12:10:10;3.90;99.90
25248;DHT22;13191;47.472;11.214;2023-02-04T12:12:40;4.00;99.90
25248;DHT22;13191;47.472;11.214;2023-02-04T12:15:13;4.00;99.90
25248;DHT22;13191;47.472;11.214;2023-02-04T12:17:38;4.00;99.90
25248;DHT22;13191;47.472;11.214;2023-02-04T12:20:04;4.00;99.90
25248;DHT22;13191;47.472;11.214;2023-02-04T12:22:29;3.90;99.90
25248;DHT22;13191;47.472;11.214;2023-02-04T12:24:55;3.90;99.90
25248;DHT22;13191;47.472;11.214;2023-02-04T12:27:20;3.90;99.90
25248;DHT22;13191;47.472;11.214;2023-02-04T12:29:47;4.00;99.90
25248;DHT22;13191;47.472;11.214;2023-02-04T12:32:12;4.00;99.90
25248;DHT22;13191;47.472;11.214;2023-02-04T12:34:38;4.00;99.90
25248;DHT22;13191;47.472;11.214;2023-02-04T12:37:03;4.00;99.90
25248;DHT22;13191;47.472;11.214;2023-02-04T12:39:29;4.00;99.90
25248;DHT22;13191;47.472;11.214;2023-02-04T12:41:56;4.00;99.90
25248;DHT22;13191;47.472;11.214;2023-02-04T12:44:21;4.00;99.90
25248;DHT22;13191;47.472;11.214;2023-02-04T12:46:47;4.00;99.90
25248;DHT22;13191;47.472;11.214;2023-02-04T12:49:12;4.10;99.90
25248;DHT22;13191;47.472;11.214;2023-02-04T12:51:38;4.10;99.90
25248;DHT22;13191;47.472;11.214;2023-02-04T12:54:03;4.10;99.90
25248;DHT22;13191;47.472;11.214;2023-02-04T12:56:29;4.00;99.90
25248;DHT22;13191;47.472;11.214;2023-02-04T12:58:54;4.00;99.90
25248;DHT22;13191;47.472;11.214;2023-02-04T13:01:20;4.00;99.90
25248;DHT22;13191;47.472;11.214;2023-02-04T13:03:45;4.00;99.90
25248;DHT22;13191;47.472;11.214;2023-02-04T13:06:11;4.00;99.90
25248;DHT22;13191;47.472;11.214;2023-02-04T13:08:36;3.80;99.90
25248;DHT22;13191;47.472;11.214;2023-02-04T13:11:02;3.60;99.90
25248;DHT22;13191;47.472;11.214;2023-02-04T13:13:27;3.60;99.90
25248;DHT22;13191;47.472;11.214;2023-02-04T13:15:53;3.60;99.90
25248;DHT22;13191;47.472;11.214;2023-02-04T13:18:18;3.70;99.90
25248;DHT22;13191;47.472;11.214;2023-02-04T13:20:44;3.70;99.90
25248;DHT22;13191;47.472;11.214;2023-02-04T13:23:10;3.80;99.90
25248;DHT22;13191;47.472;11.214;2023-02-04T13:25:35;3.80;99.90
25248;DHT22;13191;47.472;11.214;2023-02-04T13:28:01;3.80;99.90
25248;DHT22;13191;47.472;11.214;2023-02-04T13:30:26;3.80;99.90
25248;DHT22;13191;47.472;11.214;2023-02-04T13:32:52;3.90;99.90
25248;DHT22;13191;47.472;11.214;2023-02-04T13:35:17;3.90;99.90
25248;DHT22;13191;47.472;11.214;2023-02-04T13:37:43;3.80;99.90
25248;DHT22;13191;47.472;11.214;2023-02-04T13:40:09;3.80;99.90
25248;DHT22;13191;47.472;11.214;2023-02-04T13:42:35;3.90;99.90
25248;DHT22;13191;47.472;11.214;2023-02-04T13:45:00;3.80;99.90
25248;DHT22;13191;47.472;11.214;2023-02-04T13:47:26;3.90;99.90
25248;DHT22;13191;47.472;11.214;2023-02-04T13:49:51;3.90;99.90
25248;DHT22;13191;47.472;11.214;2023-02-04T13:52:17;3.90;99.90
25248;DHT22;13191;47.472;11.214;2023-02-04T13:54:43;3.90;99.90
25248;DHT22;13191;47.472;11.214;2023-02-04T13:57:08;3.90;99.90
25248;DHT22;13191;47.472;11.214;2023-02-04T13:59:33;3.90;99.90
25248;DHT22;13191;47.472;11.214;2023-02-04T14:01:59;4.00;99.90
25248;DHT22;13191;47.472;11.214;2023-02-04T14:04:24;4.00;99.90
25248;DHT22;13191;47.472;11.214;2023-02-04T14:06:51;4.00;99.90
25248;DHT22;13191;47.472;11.214;2023-02-04T14:09:16;4.00;99.90
25248;DHT22;13191;47.472;11.214;2023-02-04T14:11:42;4.00;99.90
25248;DHT22;13191;47.472;11.214;2023-02-04T14:14:08;4.00;99.90
25248;DHT22;13191;47.472;11.214;2023-02-04T14:16:33;4.00;99.90
25248;DHT22;13191;47.472;11.214;2023-02-04T14:18:59;4.00;99.90
25248;DHT22;13191;47.472;11.214;2023-02-04T14:21:24;3.90;99.90
25248;DHT22;13191;47.472;11.214;2023-02-04T14:23:50;3.90;99.90
25248;DHT22;13191;47.472;11.214;2023-02-04T14:26:15;3.80;99.90
25248;DHT22;13191;47.472;11.214;2023-02-04T14:28:41;3.80;99.90
25248;DHT22;13191;47.472;11.214;2023-02-04T14:31:06;3.90;99.90
25248;DHT22;13191;47.472;11.214;2023-02-04T14:33:32;3.90;99.90
25248;DHT22;13191;47.472;11.214;2023-02-04T14:35:57;3.90;99.90
25248;DHT22;13191;47.472;11.214;2023-02-04T14:38:23;3.90;99.90
25248;DHT22;13191;47.472;11.214;2023-02-04T14:40:55;3.90;99.90
25248;DHT22;13191;47.472;11.214;2023-02-04T14:43:20;4.00;99.90
25248;DHT22;13191;47.472;11.214;2023-02-04T14:45:46;4.00;99.90
25248;DHT22;13191;47.472;11.214;2023-02-04T14:48:11;4.00;99.90
25248;DHT22;13191;47.472;11.214;2023-02-04T14:50:36;3.90;99.90
25248;DHT22;13191;47.472;11.214;2023-02-04T14:53:02;3.90;99.90
25248;DHT22;13191;47.472;11.214;2023-02-04T14:55:27;3.90;99.90
25248;DHT22;13191;47.472;11.214;2023-02-04T14:57:53;3.90;99.90
25248;DHT22;13191;47.472;11.214;2023-02-04T15:00:18;3.90;99.90
25248;DHT22;13191;47.472;11.214;2023-02-04T15:02:44;4.00;99.90
25248;DHT22;13191;47.472;11.214;2023-02-04T15:05:10;4.00;99.90
25248;DHT22;13191;47.472;11.214;2023-02-04T15:07:36;4.00;99.90
25248;DHT22;13191;47.472;11.214;2023-02-04T15:10:02;4.00;99.90
25248;DHT22;13191;47.472;11.214;2023-02-04T15:12:27;4.00;99.90
25248;DHT22;13191;47.472;11.214;2023-02-04T15:14:52;4.00;99.90
25248;DHT22;13191;47.472;11.214;2023-02-04T15:17:18;4.00;99.90
25248;DHT22;13191;47.472;11.214;2023-02-04T15:19:43;3.90;99.90
25248;DHT22;13191;47.472;11.214;2023-02-04T15:22:09;3.90;99.90
25248;DHT22;13191;47.472;11.214;2023-02-04T15:24:37;3.90;99.90
25248;DHT22;13191;47.472;11.214;2023-02-04T15:27:02;3.90;99.90